METAR AND TAF INFORMATION
METAR FOR UNOO
ADDS - METARS form results

(2124 UTC 26 March 2019)
Data provider http://aviationweather.gov/metar/data/
 
METAR text: UNOO 262100Z 28003MPS 8000 BKN007 BKN033 M01/M02 Q1019 R25/290150 NOSIG RMK QFE756
Conditions at: UNOO (TSENTRALNY/OMSK , RU) observed 2100 UTC 26 March 2019
Temperature: -1.0°C (30°F)
Dewpoint: -2.0°C (28°F) [RH = 93%]
Pressure (altimeter): 30.09 inches Hg (1019.0 mb)
Winds: from the W (280 degrees) at 7 MPH (6 knots; 3.1 m/s)
Visibility: 5 miles ( 8 km)
Ceiling: 700 feet AGL
Clouds: broken clouds at 700 feet AGL
broken clouds at 3300 feet AGL
Weather: no significant weather observed at this time

METAR text: UNOO 262030Z 29004MPS 8000 BKN007 BKN033 M01/M02 Q1019 R25/290150 NOSIG RMK QFE756
Conditions at: UNOO (TSENTRALNY/OMSK , RU) observed 2030 UTC 26 March 2019
Temperature: -1.0°C (30°F)
Dewpoint: -2.0°C (28°F) [RH = 93%]
Pressure (altimeter): 30.09 inches Hg (1019.0 mb)
Winds: from the WNW (290 degrees) at 9 MPH (8 knots; 4.1 m/s)
Visibility: 5 miles ( 8 km)
Ceiling: 700 feet AGL
Clouds: broken clouds at 700 feet AGL
broken clouds at 3300 feet AGL
Weather: no significant weather observed at this time

Forecast for: UNOO (TSENTRALNY/OMSK , RU)
Text: TAF UNOO 261947Z 2621/2721 27003G09MPS 2100 MIFG BR BKN007
Forecast period: 2100 UTC 26 March 2019 to 0400 UTC 27 March 2019
Forecast type: FROM: standard forecast or significant change
Winds: from the W (270 degrees) at 7 MPH (6 knots; 3.1 m/s)
gusting to 20 MPH (17 knots; 8.7 m/s)
Visibility: 1.30 miles (2.09 km)
Ceiling: 700 feet AGL
Clouds: broken clouds at 700 feet AGL
Weather: MIFG BR  (shallow fog, mist)
Text: TEMPO 2621/2704 0300 FZFG VV002
Forecast period: 2100 UTC 26 March 2019 to 0400 UTC 27 March 2019
Forecast type: TEMPORARY: The following changes expected for less than half the time period
Visibility: 0.19 miles (0.31 km)
Ceiling: indefinite ceiling with vertical visibility of 200 feet AGL
Clouds: obscured sky
Weather: FZFG  (freezing fog)
Text: BECMG 2704/2706 6000 NSW SCT010
Forecast period: 0400 to 2100 UTC 27 March 2019
Forecast type: BECOMING: Conditions expected to become as follows by 0600 UTC 27 March 2019
Winds: from the W (270 degrees) at 7 MPH (6 knots; 3.1 m/s)
gusting to 20 MPH (17 knots; 8.7 m/s)
Visibility: 4 miles (6 km)
Ceiling: at least 12,000 feet AGL
Clouds: scattered clouds at 1000 feet AGL
Weather: NSW  (no significant weather)

 AIRPORT MAP

 RUNWAY INFORMATION

 AIRPORT FREQUENCIES
Type ATIS Name ATIS Frequency 126.4 MHZ
Type GND Name TAXIING Frequency 121.7 MHZ
Type RDR Name KRUG Frequency 119 MHZ
Type TWR Name START Frequency 119 MHZ

 AIRPORT NEAR NAVIGATION AIDS
Type NDB Name Omsk Frequency 332 KHZ
Type NDB Name Omsk Frequency 332 KHZ



2018 Air Astana Virtual Airline